Time;durP1;ratioP1;P1;durP2;ratioP2;P2;SDS_P1;SDS_P2;PMS_P1;PMS_P2;Temp;Humidity;BMP_temperature;BMP_pressure;BME280_temperature;BME280_humidity;BME280_pressure;Samples;Min_cycle;Max_cycle;Signal;HPM_P1;HPM_P2
2022/01/25 00:28:42;;;;;;;79.07;62.83;;;4.00;99.90;;;;;;6239652;22;20019;-81
2022/01/25 00:31:16;;;;;;;75.03;59.77;;;4.00;99.90;;;;;;6242553;22;20102;-82
2022/01/25 00:33:53;;;;;;;76.50;61.53;;;4.00;99.90;;;;;;6214795;22;20055;-81
2022/01/25 00:36:22;;;;;;;69.77;55.83;;;4.00;99.90;;;;;;6239004;22;20016;-81
2022/01/25 00:38:48;;;;;;;78.70;61.33;;;4.00;99.90;;;;;;6264878;22;20059;-81
2022/01/25 00:41:15;;;;;;;77.57;60.87;;;4.00;99.90;;;;;;6213626;22;20070;-81
2022/01/25 00:43:41;;;;;;;78.90;62.73;;;4.00;99.90;;;;;;6263936;22;20082;-81
2022/01/25 00:46:10;;;;;;;74.60;59.23;;;3.90;99.90;;;;;;6238700;22;20483;-81
2022/01/25 00:48:44;;;;;;;76.97;60.43;;;4.00;99.90;;;;;;6215569;22;20523;-81
2022/01/25 00:56:43;;;;;;;81.07;59.97;;;4.00;99.90;;;;;;6263707;22;20020;-82
2022/01/25 00:59:13;;;;;;;77.00;59.97;;;3.90;99.90;;;;;;6263415;22;20012;-81
2022/01/25 01:01:43;;;;;;;81.37;62.80;;;3.90;99.90;;;;;;6238221;22;20336;-80
2022/01/25 01:04:09;;;;;;;80.55;63.10;;;3.90;99.90;;;;;;6262641;22;20020;-81
2022/01/25 01:06:36;;;;;;;75.77;60.73;;;3.90;99.90;;;;;;6263580;22;20098;-81
2022/01/25 01:09:03;;;;;;;81.47;63.00;;;3.90;99.90;;;;;;6263523;22;20019;-81
2022/01/25 01:11:40;;;;;;;76.73;59.93;;;3.90;99.90;;;;;;6238087;22;20047;-81
2022/01/25 01:41:09;;;;;;;78.93;61.37;;;3.90;99.90;;;;;;6264139;22;20030;-81
2022/01/25 01:43:36;;;;;;;76.13;60.43;;;3.90;99.90;;;;;;6239870;22;20468;-81
2022/01/25 01:48:37;;;;;;;80.40;61.03;;;3.90;99.90;;;;;;6264393;22;20085;-81
2022/01/25 01:51:13;;;;;;;77.47;59.93;;;3.90;99.90;;;;;;6214494;22;20337;-81
2022/01/25 01:53:40;;;;;;;77.93;60.90;;;3.90;99.90;;;;;;6215312;22;20022;-82
2022/01/25 01:56:06;;;;;;;77.77;59.93;;;3.90;99.90;;;;;;6263693;22;20098;-81
2022/01/25 01:58:34;;;;;;;79.87;61.43;;;3.90;99.90;;;;;;6238921;22;20475;-81
2022/01/25 02:01:00;;;;;;;77.23;61.03;;;3.90;99.90;;;;;;6237473;22;20015;-81
2022/01/25 02:03:27;;;;;;;79.67;60.50;;;3.90;99.90;;;;;;6241511;22;20022;-80
2022/01/25 02:05:53;;;;;;;80.97;62.57;;;3.90;99.90;;;;;;6247530;22;20015;-81
2022/01/25 02:08:19;;;;;;;80.07;59.87;;;3.90;99.90;;;;;;6219947;22;20020;-81
2022/01/25 02:10:44;;;;;;;81.63;59.40;;;3.90;99.90;;;;;;6219225;22;20019;-81
2022/01/25 02:13:11;;;;;;;81.00;60.63;;;3.90;99.90;;;;;;6244908;22;20016;-81
2022/01/25 02:15:38;;;;;;;77.97;61.83;;;3.90;99.90;;;;;;6246971;22;20102;-81
2022/01/25 02:23:40;;;;;;;82.20;63.38;;;3.90;99.90;;;;;;6271108;22;20016;-81
2022/01/25 02:26:09;;;;;;;77.43;59.67;;;3.90;99.90;;;;;;6245701;22;20022;-81
2022/01/25 02:28:37;;;;;;;79.67;61.03;;;3.90;99.90;;;;;;6246039;22;20019;-81
2022/01/25 02:31:06;;;;;;;79.70;59.93;;;3.90;99.90;;;;;;6246143;22;20262;-81
2022/01/25 02:33:32;;;;;;;77.70;61.17;;;3.90;99.90;;;;;;6245886;22;20347;-81
2022/01/25 02:36:04;;;;;;;79.07;62.20;;;3.90;99.90;;;;;;6246366;22;20044;-81
2022/01/25 02:38:31;;;;;;;84.47;64.10;;;3.90;99.90;;;;;;6271471;22;20019;-81
2022/01/25 02:40:58;;;;;;;78.07;60.43;;;3.80;99.90;;;;;;6272365;22;20022;-81
2022/01/25 02:43:25;;;;;;;85.43;64.00;;;3.90;99.90;;;;;;6272510;22;20023;-81
2022/01/25 02:48:31;;;;;;;79.55;61.60;;;3.90;99.90;;;;;;6272006;22;20102;-81
2022/01/25 02:51:02;;;;;;;83.77;64.73;;;3.90;99.90;;;;;;6246405;22;20019;-81
2022/01/25 02:53:28;;;;;;;81.50;59.53;;;3.90;99.90;;;;;;6246649;22;20129;-82
2022/01/25 02:55:55;;;;;;;80.17;59.93;;;3.90;99.90;;;;;;6245502;22;20059;-81
2022/01/25 02:58:21;;;;;;;80.33;59.83;;;3.90;99.90;;;;;;6221309;22;20015;-81
2022/01/25 03:00:47;;;;;;;82.60;61.13;;;3.90;99.90;;;;;;6220350;22;20050;-82
2022/01/25 03:03:13;;;;;;;81.53;62.63;;;3.90;99.90;;;;;;6221765;22;20544;-81
2022/01/25 03:05:38;;;;;;;82.27;62.37;;;3.90;99.90;;;;;;6241827;22;20012;-81
2022/01/25 03:08:05;;;;;;;82.67;60.60;;;3.80;99.90;;;;;;6241559;22;20031;-81
2022/01/25 03:10:36;;;;;;;83.83;62.90;;;3.80;99.90;;;;;;6241236;22;20553;-81
2022/01/25 03:13:02;;;;;;;82.83;61.10;;;3.80;99.90;;;;;;6266552;22;20456;-81
2022/01/25 03:15:54;;;;;;;79.17;59.87;;;3.80;99.90;;;;;;6242498;22;20012;-81
2022/01/25 03:18:54;;;;;;;82.20;62.93;;;3.80;99.90;;;;;;6267018;22;20396;-81
2022/01/25 03:23:45;;;;;;;84.43;64.57;;;3.80;99.90;;;;;;6267649;22;20094;-81
2022/01/25 03:26:11;;;;;;;89.47;65.07;;;3.80;99.90;;;;;;6241907;22;20015;-81
2022/01/25 03:28:37;;;;;;;82.27;61.67;;;3.80;99.90;;;;;;6216501;22;20031;-81
2022/01/25 03:31:03;;;;;;;81.30;60.60;;;3.80;99.90;;;;;;6216429;22;20022;-81
2022/01/25 03:33:29;;;;;;;82.50;63.90;;;3.80;99.90;;;;;;6267267;22;20557;-81
2022/01/25 03:35:55;;;;;;;81.20;61.67;;;3.80;99.90;;;;;;6270128;22;20023;-81
2022/01/25 03:38:21;;;;;;;77.57;59.17;;;3.80;99.90;;;;;;6218743;22;20356;-81
2022/01/25 03:40:48;;;;;;;80.63;61.47;;;3.80;99.90;;;;;;6243664;22;20440;-82
2022/01/25 03:43:15;;;;;;;78.07;58.83;;;3.80;99.90;;;;;;6244180;22;20076;-82
2022/01/25 03:45:46;;;;;;;77.70;58.13;;;3.80;99.90;;;;;;6269793;22;20019;-81
2022/01/25 03:50:39;;;;;;;77.77;59.00;;;3.80;99.90;;;;;;6268237;22;20007;-81
2022/01/25 03:53:10;;;;;;;82.57;61.70;;;3.70;99.90;;;;;;6243787;22;20019;-81
2022/01/25 03:55:36;;;;;;;;;;;3.80;99.90;;;;;;6269628;22;20020;-80
2022/01/25 03:58:02;;;;;;;83.63;60.57;;;3.70;99.90;;;;;;6243974;22;19919;-81
2022/01/25 04:00:32;;;;;;;83.37;61.30;;;3.70;99.90;;;;;;6242833;22;20020;-81
2022/01/25 04:03:04;;;;;;;84.65;64.10;;;3.80;99.90;;;;;;6243697;22;20404;-80
2022/01/25 04:05:51;;;;;;;83.03;60.97;;;3.80;99.90;;;;;;6244450;22;20022;-81
2022/01/25 04:08:17;;;;;;;82.70;59.80;;;3.80;99.90;;;;;;6247994;22;20466;-81
2022/01/25 04:10:43;;;;;;;86.23;61.40;;;3.80;99.90;;;;;;6268756;22;20078;-82
2022/01/25 04:13:10;;;;;;;83.93;63.57;;;3.80;99.90;;;;;;6243208;22;20496;-81
2022/01/25 04:15:43;;;;;;;83.73;62.63;;;3.80;99.90;;;;;;6243929;22;20024;-81
2022/01/25 04:18:34;;;;;;;86.90;63.60;;;3.80;99.90;;;;;;6243614;22;20020;-81
2022/01/25 04:26:33;;;;;;;80.73;60.30;;;3.80;99.90;;;;;;6268251;22;20055;-81
2022/01/25 04:28:59;;;;;;;82.10;61.13;;;3.80;99.90;;;;;;6243256;22;20569;-81
2022/01/25 04:31:25;;;;;;;86.53;63.17;;;3.70;99.90;;;;;;6268471;22;20016;-81
2022/01/25 04:48:51;;;;;;;77.23;57.90;;;3.80;99.90;;;;;;6247790;22;20023;-82
2022/01/25 04:53:14;;;;;;;84.53;62.63;;;3.70;99.90;;;;;;6246313;22;20027;-81
2022/01/25 04:58:19;;;;;;;89.03;63.67;;;3.70;99.90;;;;;;6244021;22;20058;-81
2022/01/25 05:00:47;;;;;;;86.50;63.40;;;3.70;99.90;;;;;;6242219;22;20439;-81
2022/01/25 05:03:18;;;;;;;82.67;60.83;;;3.70;99.90;;;;;;6217521;22;20015;-81
2022/01/25 05:05:58;;;;;;;86.80;61.80;;;3.60;99.90;;;;;;6267565;22;20032;-82
2022/01/25 05:08:39;;;;;;;86.47;62.40;;;3.60;99.90;;;;;;6268708;22;20016;-81
2022/01/25 05:11:14;;;;;;;82.40;60.27;;;3.70;99.90;;;;;;6220895;22;20081;-81
2022/01/25 05:13:53;;;;;;;80.03;59.47;;;3.70;99.90;;;;;;6219826;22;20030;-81
2022/01/25 05:24:30;;;;;;;82.47;60.60;;;3.70;99.90;;;;;;6268438;22;20020;-81
2022/01/25 05:26:56;;;;;;;83.53;60.63;;;3.70;99.90;;;;;;6217441;22;20073;-81
2022/01/25 05:29:21;;;;;;;87.23;62.77;;;3.80;99.90;;;;;;6217881;22;20020;-81
2022/01/25 05:31:47;;;;;;;87.07;64.23;;;3.70;99.90;;;;;;6243496;22;20015;-81
2022/01/25 05:34:13;;;;;;;83.10;60.87;;;3.70;99.90;;;;;;6216739;22;20011;-80
2022/01/25 05:36:42;;;;;;;79.40;58.67;;;3.70;99.90;;;;;;6217683;22;20023;-81
2022/01/25 05:39:12;;;;;;;83.03;61.00;;;3.70;99.90;;;;;;6268830;22;20015;-81
2022/01/25 05:41:40;;;;;;;84.65;61.80;;;3.70;99.90;;;;;;6218520;22;20015;-81
2022/01/25 05:46:47;;;;;;;83.37;60.27;;;3.70;99.90;;;;;;6243371;22;20206;-81
2022/01/25 05:49:13;;;;;;;89.83;62.17;;;3.70;99.90;;;;;;6268510;22;20095;-81
2022/01/25 05:51:40;;;;;;;83.57;60.53;;;3.70;99.90;;;;;;6242529;22;20024;-81
2022/01/25 05:54:05;;;;;;;80.87;56.10;;;3.70;99.90;;;;;;6268095;22;20047;-81
2022/01/25 05:56:31;;;;;;;82.60;58.37;;;3.60;99.90;;;;;;6242396;22;20016;-80
2022/01/25 05:59:00;;;;;;;84.97;60.03;;;3.70;99.90;;;;;;6267354;22;20016;-80
2022/01/25 06:01:25;;;;;;;83.90;58.87;;;3.70;99.90;;;;;;6238948;22;20475;-80
2022/01/25 06:03:53;;;;;;;87.00;60.63;;;3.70;99.90;;;;;;6240770;22;20016;-80
2022/01/25 06:06:19;;;;;;;84.47;62.90;;;3.70;99.90;;;;;;6247026;22;20071;-80
2022/01/25 06:08:45;;;;;;;85.90;64.10;;;3.70;99.90;;;;;;6272055;22;20081;-81
2022/01/25 06:11:11;;;;;;;82.57;61.07;;;3.70;99.90;;;;;;6246738;22;20011;-80
2022/01/25 06:13:37;;;;;;;85.53;60.77;;;3.70;99.90;;;;;;6246834;22;20152;-81
2022/01/25 06:16:03;;;;;;;83.43;61.53;;;3.70;99.90;;;;;;6246229;22;20023;-80
2022/01/25 06:18:28;;;;;;;84.33;60.70;;;3.70;99.90;;;;;;6246620;22;20073;-80
2022/01/25 06:20:54;;;;;;;81.53;57.77;;;3.70;99.90;;;;;;6246488;22;20455;-80
2022/01/25 06:23:20;;;;;;;89.30;60.77;;;3.70;99.90;;;;;;6221114;22;20466;-82
2022/01/25 06:25:46;;;;;;;83.90;60.03;;;3.70;99.90;;;;;;6220363;22;20399;-81
2022/01/25 06:28:13;;;;;;;84.43;60.50;;;3.70;99.90;;;;;;6272155;22;20013;-81
2022/01/25 06:30:39;;;;;;;84.27;58.47;;;3.70;99.90;;;;;;6271444;22;20090;-81
2022/01/25 06:33:09;;;;;;;85.07;57.87;;;3.70;99.90;;;;;;6245317;22;20011;-81
2022/01/25 06:35:35;;;;;;;84.10;60.15;;;3.70;99.90;;;;;;6244834;22;20016;-81
2022/01/25 06:38:01;;;;;;;86.77;60.47;;;3.70;99.90;;;;;;6245536;22;20023;-81
2022/01/25 06:40:30;;;;;;;82.70;59.67;;;3.70;99.90;;;;;;6272015;22;20024;-81
2022/01/25 06:42:56;;;;;;;82.00;59.23;;;3.70;99.90;;;;;;6265543;22;20030;-82
2022/01/25 06:45:24;;;;;;;86.07;60.07;;;3.70;99.90;;;;;;6244579;22;20019;-81
2022/01/25 06:47:51;;;;;;;85.63;59.87;;;3.70;99.90;;;;;;6247029;22;20015;-81
2022/01/25 06:50:19;;;;;;;84.23;61.10;;;3.70;99.90;;;;;;6269834;22;20136;-81
2022/01/25 06:52:45;;;;;;;83.30;59.00;;;3.80;99.90;;;;;;6270589;22;20023;-82
2022/01/25 06:55:13;;;;;;;86.80;58.87;;;3.70;99.90;;;;;;6269984;22;20019;-81
2022/01/25 06:57:40;;;;;;;85.20;61.17;;;3.70;99.90;;;;;;6267662;22;20094;-81
2022/01/25 07:00:09;;;;;;;84.47;60.10;;;3.70;99.90;;;;;;6218669;22;20523;-81
2022/01/25 07:02:35;;;;;;;86.57;63.70;;;3.70;99.90;;;;;;6244403;22;20058;-81
2022/01/25 07:05:02;;;;;;;87.90;60.97;;;3.70;99.90;;;;;;6244301;22;20020;-82
2022/01/25 07:07:29;;;;;;;86.80;60.30;;;3.70;99.90;;;;;;6271195;22;20019;-81
2022/01/25 07:09:55;;;;;;;92.13;63.50;;;3.70;99.90;;;;;;6271372;22;20082;-81
2022/01/25 07:12:22;;;;;;;88.67;62.17;;;3.70;99.90;;;;;;6270730;22;20019;-81
2022/01/25 07:14:48;;;;;;;85.53;61.13;;;3.70;99.90;;;;;;6243984;22;20397;-81
2022/01/25 07:17:14;;;;;;;86.50;58.93;;;3.70;99.90;;;;;;6221483;22;20472;-81
2022/01/25 07:19:43;;;;;;;87.83;60.47;;;3.70;99.90;;;;;;6242395;22;20755;-81
2022/01/25 07:22:09;;;;;;;90.20;61.53;;;3.70;99.90;;;;;;6241458;22;20026;-81
2022/01/25 07:24:35;;;;;;;89.57;60.13;;;3.70;99.90;;;;;;6241549;22;20023;-82
2022/01/25 07:27:00;;;;;;;90.03;59.37;;;3.70;99.90;;;;;;6245227;22;20055;-82
2022/01/25 07:29:26;;;;;;;83.83;57.87;;;3.70;99.90;;;;;;6245719;22;20116;-82
2022/01/25 07:31:53;;;;;;;85.67;59.03;;;3.80;99.90;;;;;;6270826;22;20030;-81
2022/01/25 07:34:19;;;;;;;83.33;60.43;;;3.70;99.90;;;;;;6243707;22;20011;-81
2022/01/25 07:36:45;;;;;;;86.63;59.23;;;3.70;99.90;;;;;;6217242;22;20062;-81
2022/01/25 07:39:11;;;;;;;86.37;59.90;;;3.70;99.90;;;;;;6268372;22;20019;-81
2022/01/25 07:41:40;;;;;;;88.07;60.57;;;3.70;99.90;;;;;;6268744;22;20098;-81
2022/01/25 07:44:06;;;;;;;85.23;59.60;;;3.70;99.90;;;;;;6244368;22;20019;-81
2022/01/25 07:46:33;;;;;;;87.73;59.47;;;3.70;99.90;;;;;;6269601;22;20088;-81
2022/01/25 07:48:59;;;;;;;87.53;58.97;;;3.70;99.90;;;;;;6270258;22;20020;-81
2022/01/25 07:51:28;;;;;;;80.67;58.90;;;3.70;99.90;;;;;;6270174;22;20050;-81
2022/01/25 07:53:56;;;;;;;89.30;61.10;;;3.70;99.90;;;;;;6269810;22;20110;-81
2022/01/25 07:56:22;;;;;;;86.23;59.43;;;3.70;99.90;;;;;;6242989;22;20051;-82
2022/01/25 07:58:48;;;;;;;85.77;57.63;;;3.60;99.90;;;;;;6243171;22;20041;-81
2022/01/25 08:01:17;;;;;;;88.27;61.03;;;3.70;99.90;;;;;;6245437;22;20050;-81
2022/01/25 08:03:44;;;;;;;77.93;54.13;;;3.80;99.90;;;;;;6270369;22;20473;-80
2022/01/25 08:06:10;;;;;;;83.10;58.53;;;3.70;99.90;;;;;;6266440;22;20019;-81
2022/01/25 08:08:36;;;;;;;83.67;57.67;;;3.70;99.90;;;;;;6241564;22;20028;-81
2022/01/25 08:11:03;;;;;;;79.83;57.50;;;3.70;99.90;;;;;;6242458;22;20081;-81
2022/01/25 08:13:29;;;;;;;80.70;54.40;;;3.60;99.90;;;;;;6266847;22;20020;-81
2022/01/25 08:15:58;;;;;;;85.17;58.03;;;3.70;99.90;;;;;;6239010;22;20019;-81
2022/01/25 08:18:24;;;;;;;83.67;56.77;;;3.70;99.90;;;;;;6239478;22;20026;-81
2022/01/25 08:20:49;;;;;;;82.40;56.63;;;3.70;99.90;;;;;;6267042;22;20020;-81
2022/01/25 08:23:15;;;;;;;85.33;58.20;;;3.70;99.90;;;;;;6242131;22;20106;-81
2022/01/25 08:25:41;;;;;;;80.07;56.53;;;3.70;99.90;;;;;;6242583;22;20471;-81
2022/01/25 08:28:07;;;;;;;84.20;57.93;;;3.70;99.90;;;;;;6217655;22;20026;-81
2022/01/25 08:30:36;;;;;;;90.13;59.63;;;3.70;99.90;;;;;;6242940;22;20448;-81
2022/01/25 08:33:02;;;;;;;87.20;56.10;;;3.90;99.90;;;;;;6217991;22;20023;-81
2022/01/25 08:35:31;;;;;;;85.50;56.30;;;3.70;99.90;;;;;;6241648;22;20063;-81
2022/01/25 08:38:00;;;;;;;83.33;57.47;;;3.80;99.90;;;;;;6217835;22;20019;-81
2022/01/25 08:40:25;;;;;;;83.60;56.57;;;3.80;99.90;;;;;;6268236;22;20019;-81
2022/01/25 08:42:51;;;;;;;81.97;55.90;;;3.80;99.90;;;;;;6241914;22;20095;-81
2022/01/25 08:45:17;;;;;;;86.57;59.40;;;3.80;99.90;;;;;;6243331;22;20050;-81
2022/01/25 08:47:43;;;;;;;86.20;59.60;;;3.80;99.90;;;;;;6242665;22;20020;-81
2022/01/25 08:50:09;;;;;;;85.17;57.63;;;3.80;99.90;;;;;;6266392;22;20464;-81
2022/01/25 08:52:37;;;;;;;88.60;58.40;;;3.80;99.90;;;;;;6241957;22;20067;-81
2022/01/25 08:55:04;;;;;;;90.63;60.00;;;3.80;99.90;;;;;;6239019;22;20019;-81
2022/01/25 08:57:29;;;;;;;88.17;59.73;;;3.80;99.90;;;;;;6266567;22;20099;-81
2022/01/25 08:59:55;;;;;;;87.70;59.47;;;3.80;99.90;;;;;;6264245;22;20059;-81
2022/01/25 09:02:24;;;;;;;88.70;60.73;;;3.90;99.90;;;;;;6240403;22;20357;-81
2022/01/25 09:04:53;;;;;;;88.23;59.13;;;3.80;99.90;;;;;;6244446;22;20062;-80
2022/01/25 09:07:18;;;;;;;85.77;58.13;;;3.80;99.90;;;;;;6245683;22;20019;-81
2022/01/25 09:09:44;;;;;;;84.37;56.57;;;3.80;99.90;;;;;;6220081;22;20050;-81
2022/01/25 09:12:10;;;;;;;79.87;57.17;;;3.80;99.90;;;;;;6221687;22;20047;-81
2022/01/25 09:14:36;;;;;;;80.87;54.43;;;3.80;99.90;;;;;;6246860;22;20030;-81
2022/01/25 09:17:02;;;;;;;84.00;56.07;;;3.80;99.90;;;;;;6247488;22;20062;-80
2022/01/25 09:19:28;;;;;;;82.43;58.23;;;3.80;99.90;;;;;;6247270;22;20011;-81
2022/01/25 09:21:54;;;;;;;87.87;58.80;;;3.80;99.90;;;;;;6246232;22;20464;-81
2022/01/25 09:24:20;;;;;;;86.77;58.27;;;3.80;99.90;;;;;;6220323;22;20015;-81
2022/01/25 09:26:46;;;;;;;81.97;55.03;;;3.80;99.90;;;;;;6244005;22;20096;-80
2022/01/25 09:29:11;;;;;;;83.93;56.90;;;3.80;99.90;;;;;;6219699;22;20258;-81
2022/01/25 09:31:37;;;;;;;84.93;56.80;;;3.80;99.90;;;;;;6218823;22;20027;-81
2022/01/25 09:34:03;;;;;;;89.67;59.37;;;3.80;99.90;;;;;;6219326;22;20262;-81
2022/01/25 09:36:29;;;;;;;85.07;56.10;;;3.80;99.90;;;;;;6246470;22;20026;-81
2022/01/25 09:38:56;;;;;;;83.77;57.00;;;3.90;99.90;;;;;;6221079;22;20019;-81
2022/01/25 09:41:23;;;;;;;82.33;56.57;;;3.90;99.90;;;;;;6272403;22;20108;-81
2022/01/25 09:43:48;;;;;;;85.70;57.43;;;3.90;99.90;;;;;;6244836;22;20020;-82
2022/01/25 09:46:15;;;;;;;85.33;56.40;;;3.90;99.90;;;;;;6272213;22;20343;-82
2022/01/25 09:48:41;;;;;;;91.60;58.80;;;3.90;99.90;;;;;;6272048;22;20023;-81
2022/01/25 09:51:09;;;;;;;87.23;57.43;;;4.00;99.90;;;;;;6270110;22;20050;-82
2022/01/25 09:53:35;;;;;;;88.47;59.00;;;3.90;99.90;;;;;;6219548;22;20122;-81
2022/01/25 09:56:01;;;;;;;84.60;57.67;;;3.90;99.90;;;;;;6246994;22;20563;-81
2022/01/25 09:58:26;;;;;;;90.10;58.73;;;4.00;99.90;;;;;;6272648;22;20011;-81
2022/01/25 10:00:56;;;;;;;89.07;58.57;;;3.90;99.90;;;;;;6222437;22;20093;-81
2022/01/25 10:03:29;;;;;;;85.85;58.00;;;3.90;99.90;;;;;;6221131;22;20445;-81
2022/01/25 10:05:56;;;;;;;87.67;58.57;;;3.90;99.90;;;;;;6221615;22;20524;-81
2022/01/25 10:08:32;;;;;;;83.73;56.27;;;4.00;99.90;;;;;;6247122;22;20068;-81
2022/01/25 10:11:01;;;;;;;89.83;56.53;;;4.00;99.90;;;;;;6247368;22;20015;-81
2022/01/25 10:13:37;;;;;;;90.47;58.50;;;4.00;99.90;;;;;;6246533;22;20062;-81
2022/01/25 10:16:30;;;;;;;89.07;57.60;;;4.00;99.90;;;;;;6244216;22;20027;-81
2022/01/25 10:19:01;;;;;;;91.77;60.13;;;4.00;99.90;;;;;;6269478;22;20019;-82
2022/01/25 10:21:32;;;;;;;93.57;62.43;;;4.00;99.90;;;;;;6266844;22;20026;-81
2022/01/25 10:24:07;;;;;;;;;;;4.00;99.90;;;;;;6266065;22;20081;-81
2022/01/25 10:26:39;;;;;;;92.03;59.07;;;4.00;99.90;;;;;;6241372;22;20001;-81
2022/01/25 10:29:09;;;;;;;89.93;60.53;;;4.00;99.90;;;;;;6267475;22;20046;-81
2022/01/25 10:31:40;;;;;;;91.88;60.22;;;4.00;99.90;;;;;;6242991;22;20019;-81
2022/01/25 10:34:08;;;;;;;89.10;58.50;;;4.00;99.90;;;;;;6242397;22;20023;-81
2022/01/25 10:36:45;;;;;;;91.50;60.03;;;4.00;99.90;;;;;;6241834;22;20118;-81
2022/01/25 10:39:12;;;;;;;86.83;56.17;;;4.10;99.90;;;;;;6241351;22;20699;-82
2022/01/25 10:41:39;;;;;;;90.47;59.37;;;4.00;99.90;;;;;;6268621;22;20019;-81
2022/01/25 10:44:07;;;;;;;88.23;57.47;;;4.10;99.90;;;;;;6241620;22;20546;-81
2022/01/25 10:46:34;;;;;;;88.27;57.83;;;4.00;99.90;;;;;;6240358;22;20068;-82
2022/01/25 10:49:04;;;;;;;92.63;56.50;;;4.10;99.90;;;;;;6240438;22;20015;-81
2022/01/25 10:51:42;;;;;;;97.32;58.58;;;4.10;99.90;;;;;;6266000;22;20011;-82
2022/01/25 10:54:17;;;;;;;88.30;58.17;;;4.10;99.90;;;;;;6266284;22;20197;-81
2022/01/25 10:56:46;;;;;;;93.00;59.80;;;4.10;99.90;;;;;;6266438;22;20094;-81
2022/01/25 10:59:18;;;;;;;93.97;61.80;;;4.10;99.90;;;;;;6241064;22;20363;-81
2022/01/25 11:01:56;;;;;;;91.77;59.07;;;4.30;99.90;;;;;;6266656;22;20015;-82
2022/01/25 11:04:34;;;;;;;93.97;61.03;;;4.10;99.90;;;;;;6264782;22;20072;-82
2022/01/25 11:07:08;;;;;;;95.37;60.93;;;4.10;99.90;;;;;;6261522;22;20412;-81
2022/01/25 11:09:40;;;;;;;95.47;59.30;;;4.10;99.90;;;;;;6261892;22;20023;-81
2022/01/25 11:12:11;;;;;;;91.93;58.37;;;4.20;99.90;;;;;;6261070;22;20015;-82
2022/01/25 11:14:50;;;;;;;91.43;57.47;;;4.10;99.90;;;;;;6261081;22;20020;-82
2022/01/25 11:17:26;;;;;;;98.10;63.13;;;4.30;99.90;;;;;;6231960;22;20019;-82
2022/01/25 11:19:56;;;;;;;95.27;61.03;;;4.20;99.90;;;;;;6260648;22;20023;-81
2022/01/25 11:22:23;;;;;;;94.53;61.33;;;4.20;99.90;;;;;;6259942;22;20016;-82
2022/01/25 11:24:58;;;;;;;98.60;59.93;;;4.20;99.90;;;;;;6259225;22;20019;-81
2022/01/25 11:27:30;;;;;;;104.47;63.27;;;4.20;99.90;;;;;;6234806;22;20023;-81
2022/01/25 11:30:04;;;;;;;96.33;61.67;;;4.20;99.90;;;;;;6235298;22;20020;-82
2022/01/25 11:32:35;;;;;;;98.40;61.87;;;4.10;99.90;;;;;;6261220;22;21105;-82
2022/01/25 11:35:05;;;;;;;98.77;60.93;;;4.20;99.90;;;;;;6260426;22;20098;-82
2022/01/25 11:37:40;;;;;;;100.73;62.67;;;4.20;99.90;;;;;;6261522;22;20643;-81
2022/01/25 11:40:33;;;;;;;104.53;63.43;;;4.30;99.90;;;;;;6259643;22;20103;-81
2022/01/25 11:43:02;;;;;;;91.40;56.93;;;4.20;99.90;;;;;;6247313;22;20483;-81
2022/01/25 11:45:30;;;;;;;95.07;59.17;;;4.30;99.90;;;;;;6236379;22;20047;-82
2022/01/25 11:48:06;;;;;;;89.20;56.77;;;4.20;99.90;;;;;;6209940;22;20023;-81
2022/01/25 11:50:35;;;;;;;93.30;59.10;;;4.30;99.90;;;;;;6236954;22;20026;-81
2022/01/25 11:53:06;;;;;;;92.17;58.30;;;4.30;99.90;;;;;;6260958;22;20016;-81
2022/01/25 11:55:41;;;;;;;90.50;56.47;;;4.30;99.90;;;;;;6235860;22;20077;-82
2022/01/25 11:58:08;;;;;;;93.63;57.17;;;4.30;99.90;;;;;;6237406;22;20073;-82
2022/01/25 12:00:47;;;;;;;91.67;58.33;;;4.30;99.90;;;;;;6237364;22;20015;-82
2022/01/25 12:03:32;;;;;;;95.30;59.00;;;4.30;99.90;;;;;;6237230;22;20508;-82
2022/01/25 12:06:33;;;;;;;93.60;59.47;;;4.30;99.90;;;;;;6259461;22;20386;-82
2022/01/25 12:11:48;;;;;;;89.93;58.50;;;4.30;99.90;;;;;;6264337;22;20577;-82
2022/01/25 12:14:26;;;;;;;93.50;57.20;;;4.30;99.90;;;;;;6264951;22;20019;-82
2022/01/25 12:17:03;;;;;;;90.83;57.73;;;4.30;99.90;;;;;;6237898;22;20020;-82
2022/01/25 12:19:37;;;;;;;89.40;57.20;;;4.30;99.90;;;;;;6264819;22;20456;-82
2022/01/25 12:22:11;;;;;;;91.50;57.30;;;4.30;99.90;;;;;;6263293;22;20020;-82
2022/01/25 12:24:44;;;;;;;94.30;56.87;;;4.30;99.90;;;;;;6239276;22;20027;-82
2022/01/25 12:29:44;;;;;;;88.40;55.27;;;4.30;99.90;;;;;;6264285;22;20023;-82
2022/01/25 12:32:33;;;;;;;93.30;58.13;;;4.30;99.90;;;;;;6263467;22;20045;-82
2022/01/25 12:35:05;;;;;;;95.37;58.33;;;4.30;99.90;;;;;;6238835;22;20019;-82
2022/01/25 12:37:43;;;;;;;89.67;55.23;;;4.30;99.90;;;;;;6264584;22;20024;-82
2022/01/25 12:40:28;;;;;;;93.70;56.90;;;4.30;99.90;;;;;;6238358;22;20022;-82
2022/01/25 12:42:55;;;;;;;92.00;57.23;;;4.30;99.90;;;;;;6263903;22;20073;-82
2022/01/25 12:45:23;;;;;;;94.37;57.80;;;4.30;99.90;;;;;;6263986;22;20019;-82
2022/01/25 12:48:04;;;;;;;93.60;58.43;;;4.30;99.90;;;;;;6238772;22;20019;-82
2022/01/25 12:50:30;;;;;;;90.57;54.70;;;4.30;99.90;;;;;;6237966;22;20463;-82
2022/01/25 12:53:02;;;;;;;88.13;56.63;;;4.20;99.90;;;;;;6213753;22;20434;-82
2022/01/25 12:55:33;;;;;;;92.33;56.93;;;4.20;99.90;;;;;;6236983;22;20039;-82
2022/01/25 12:57:59;;;;;;;96.63;57.33;;;4.30;99.90;;;;;;6262836;22;20024;-83
2022/01/25 13:00:34;;;;;;;92.68;57.08;;;4.30;99.90;;;;;;6238406;22;20294;-82
2022/01/25 13:03:39;;;;;;;90.00;56.60;;;4.30;99.90;;;;;;6238465;22;20050;-83
2022/01/25 13:06:19;;;;;;;91.83;56.97;;;4.30;99.90;;;;;;6254297;22;20021;-82
2022/01/25 13:08:55;;;;;;;93.80;60.17;;;4.30;99.90;;;;;;6238358;22;20023;-83
2022/01/25 13:11:25;;;;;;;92.03;57.20;;;4.20;99.90;;;;;;6262921;22;20022;-83
2022/01/25 13:14:15;;;;;;;100.05;59.25;;;4.30;99.90;;;;;;6258986;22;20055;-82
2022/01/25 13:16:44;;;;;;;89.32;58.45;;;4.30;99.90;;;;;;6261470;22;20141;-82
2022/01/25 13:19:11;;;;;;;96.73;58.57;;;4.20;99.90;;;;;;6261464;22;20016;-82
2022/01/25 13:21:44;;;;;;;92.10;58.63;;;4.20;99.90;;;;;;6236590;22;20297;-82
2022/01/25 13:24:17;;;;;;;92.80;57.30;;;4.20;99.90;;;;;;6236382;22;20024;-82
2022/01/25 13:27:01;;;;;;;95.00;57.00;;;4.30;99.90;;;;;;6237158;22;20279;-82
2022/01/25 13:32:23;;;;;;;90.40;56.30;;;4.30;99.90;;;;;;6262334;22;20441;-82
2022/01/25 13:35:25;;;;;;;92.57;56.03;;;4.30;99.90;;;;;;6263608;22;20019;-82
2022/01/25 13:38:25;;;;;;;89.67;56.53;;;4.30;99.90;;;;;;6263609;22;20074;-82
2022/01/25 13:41:18;;;;;;;87.30;57.70;;;4.30;99.90;;;;;;6220776;22;20022;-82
2022/01/25 13:46:36;;;;;;;90.95;58.22;;;4.30;99.90;;;;;;6262820;22;20081;-82
2022/01/25 13:49:22;;;;;;;91.97;56.30;;;4.30;99.90;;;;;;6238047;22;20414;-82
2022/01/25 13:51:57;;;;;;;94.73;57.37;;;4.40;99.90;;;;;;6262491;22;20033;-82
2022/01/25 13:54:29;;;;;;;95.90;56.27;;;4.20;99.90;;;;;;6236962;22;20344;-82
2022/01/25 13:56:56;;;;;;;91.27;56.17;;;4.30;99.90;;;;;;6262360;22;20020;-82
2022/01/25 13:59:24;;;;;;;94.33;57.80;;;4.30;99.90;;;;;;6263417;22;20074;-82
2022/01/25 14:01:50;;;;;;;98.27;56.23;;;4.30;99.90;;;;;;6211413;22;20461;-84
2022/01/25 14:04:27;;;;;;;92.43;53.63;;;4.30;99.90;;;;;;6257560;22;20499;-81
2022/01/25 14:06:55;;;;;;;95.10;56.90;;;4.30;99.90;;;;;;6233122;22;20026;-81
2022/01/25 14:09:32;;;;;;;105.07;59.33;;;4.30;99.90;;;;;;6235489;22;20478;-81
2022/01/25 14:25:39;;;;;;;98.43;58.20;;;4.20;99.90;;;;;;6263024;22;20095;-82
2022/01/25 14:28:14;;;;;;;89.87;55.57;;;4.20;99.90;;;;;;6262451;22;20044;-82
2022/01/25 14:30:43;;;;;;;93.60;56.57;;;4.20;99.90;;;;;;6236972;22;20423;-83
2022/01/25 14:33:12;;;;;;;100.03;56.37;;;4.20;99.90;;;;;;6238042;22;20107;-83
2022/01/25 14:35:43;;;;;;;95.47;56.20;;;4.20;99.90;;;;;;6262957;22;20019;-82
2022/01/25 14:38:20;;;;;;;94.50;55.67;;;4.20;99.90;;;;;;6264309;22;20019;-83
2022/01/25 14:41:08;;;;;;;95.83;56.20;;;4.20;99.90;;;;;;6262445;22;20024;-82
2022/01/25 14:43:37;;;;;;;96.83;58.83;;;4.20;99.90;;;;;;6259703;22;20019;-82
2022/01/25 14:46:11;;;;;;;90.60;55.50;;;4.20;99.90;;;;;;6233823;22;20016;-82
2022/01/25 14:48:41;;;;;;;95.17;60.03;;;4.10;99.90;;;;;;6237595;22;20023;-82
2022/01/25 14:51:11;;;;;;;97.75;58.83;;;4.20;99.90;;;;;;6262490;22;20024;-82
2022/01/25 14:53:43;;;;;;;96.97;57.87;;;4.10;99.90;;;;;;6262227;22;20073;-82
2022/01/25 14:56:14;;;;;;;107.57;60.13;;;4.10;99.90;;;;;;6238777;22;20047;-83
2022/01/25 15:01:21;;;;;;;98.30;57.97;;;4.10;99.90;;;;;;6262737;22;20027;-82
2022/01/25 15:03:49;;;;;;;93.87;56.27;;;4.10;99.90;;;;;;6238073;22;20019;-82
2022/01/25 15:06:18;;;;;;;94.00;56.47;;;4.10;99.90;;;;;;6242247;22;20023;-82
2022/01/25 15:08:52;;;;;;;97.13;57.30;;;4.10;99.90;;;;;;6269165;22;20023;-83
2022/01/25 15:11:19;;;;;;;99.70;58.53;;;4.10;99.90;;;;;;6242211;22;20239;-82